createdAt,value
2018-05-24T00:00:30.925Z,5.50
2018-05-24T00:01:33.413Z,5.40
2018-05-24T00:02:35.915Z,6.30
2018-05-24T00:03:38.401Z,5.67
2018-05-24T00:04:40.933Z,5.47
2018-05-24T00:05:43.407Z,5.33
2018-05-24T00:06:45.897Z,6.53
2018-05-24T00:07:48.403Z,6.00
2018-05-24T00:08:50.910Z,5.90
2018-05-24T00:09:53.436Z,6.40
2018-05-24T00:10:55.910Z,5.40
2018-05-24T00:11:58.389Z,5.10
2018-05-24T00:13:00.891Z,5.10
2018-05-24T00:14:03.397Z,5.27
2018-05-24T00:15:05.908Z,5.20
2018-05-24T00:16:08.389Z,5.73
2018-05-24T00:17:10.899Z,6.07
2018-05-24T00:18:13.386Z,5.30
2018-05-24T00:19:15.877Z,6.23
2018-05-24T00:20:18.397Z,5.97
2018-05-24T00:21:20.887Z,5.10
2018-05-24T00:22:23.403Z,5.57
2018-05-24T00:23:25.897Z,6.20
2018-05-24T00:24:28.395Z,5.57
2018-05-24T00:25:30.917Z,5.63
2018-05-24T00:26:33.423Z,5.40
2018-05-24T00:27:35.933Z,5.17
2018-05-24T00:28:38.433Z,5.37
2018-05-24T00:29:40.930Z,5.30
2018-05-24T00:30:43.456Z,5.20
2018-05-24T00:31:45.945Z,5.13
2018-05-24T00:32:48.440Z,5.93
2018-05-24T00:33:50.948Z,6.07
2018-05-24T00:34:53.445Z,5.67
2018-05-24T00:35:55.953Z,5.00
2018-05-24T00:36:58.467Z,5.20
2018-05-24T00:38:00.972Z,5.60
2018-05-24T00:39:03.480Z,5.33
2018-05-24T00:40:05.962Z,5.00
2018-05-24T00:41:08.477Z,5.63
2018-05-24T00:42:10.974Z,6.70
2018-05-24T00:43:13.471Z,5.33
2018-05-24T00:44:15.977Z,4.87
2018-05-24T00:45:18.488Z,4.67
2018-05-24T00:46:21.023Z,4.93
2018-05-24T00:47:23.535Z,5.20
2018-05-24T00:48:26.022Z,4.97
2018-05-24T00:49:28.535Z,5.27
2018-05-24T00:50:31.037Z,5.53
2018-05-24T00:51:33.565Z,5.30
2018-05-24T00:52:36.043Z,5.13
2018-05-24T00:53:38.531Z,5.03
2018-05-24T00:54:41.093Z,5.10
2018-05-24T00:55:43.559Z,5.00
2018-05-24T00:56:46.065Z,5.00
2018-05-24T00:57:48.550Z,5.77
2018-05-24T00:58:51.037Z,5.10
2018-05-24T00:59:53.537Z,5.30
2018-05-24T01:00:56.007Z,5.30
2018-05-24T01:01:58.543Z,5.30
2018-05-24T01:03:01.052Z,6.00
2018-05-24T01:04:03.549Z,4.37
2018-05-24T01:05:06.027Z,5.47
2018-05-24T01:06:08.525Z,5.70
2018-05-24T01:07:11.040Z,5.10
2018-05-24T01:08:13.538Z,5.27
2018-05-24T01:09:16.018Z,4.90
2018-05-24T01:10:18.509Z,4.70
2018-05-24T01:11:21.001Z,5.00
2018-05-24T01:12:23.537Z,5.13
2018-05-24T01:13:26.048Z,5.03
2018-05-24T01:14:28.595Z,4.33
2018-05-24T01:15:31.099Z,4.37
2018-05-24T01:16:33.631Z,4.43
2018-05-24T01:17:36.148Z,4.93
2018-05-24T01:18:38.667Z,5.40
2018-05-24T01:19:41.165Z,4.60
2018-05-24T01:20:43.673Z,5.20
2018-05-24T01:21:46.156Z,4.80
2018-05-24T01:22:48.672Z,4.33
2018-05-24T01:23:51.183Z,4.90
2018-05-24T01:24:53.680Z,4.43
2018-05-24T01:25:56.154Z,5.03
2018-05-24T01:26:58.633Z,5.00
2018-05-24T01:28:01.149Z,5.13
2018-05-24T01:29:03.662Z,4.60
2018-05-24T01:30:06.142Z,4.30
2018-05-24T01:31:08.643Z,4.60
2018-05-24T01:32:11.157Z,4.87
2018-05-24T01:33:13.665Z,4.50
2018-05-24T01:34:16.153Z,4.90
2018-05-24T01:35:18.622Z,4.43
2018-05-24T01:36:21.094Z,4.60
2018-05-24T01:37:35.541Z,4.67
2018-05-24T01:38:38.256Z,4.50
2018-05-24T01:39:40.764Z,4.70
2018-05-24T01:40:43.242Z,4.50
2018-05-24T01:41:45.747Z,4.87
2018-05-24T01:42:48.219Z,4.20
2018-05-24T01:43:50.716Z,4.30
2018-05-24T01:44:53.196Z,4.30
2018-05-24T01:45:55.685Z,4.30
2018-05-24T01:46:58.278Z,4.37
2018-05-24T01:48:00.764Z,4.40
2018-05-24T01:49:03.292Z,4.60
2018-05-24T01:50:05.826Z,4.67
2018-05-24T01:51:08.317Z,4.13
2018-05-24T01:52:10.804Z,4.53
2018-05-24T01:53:13.296Z,4.20
2018-05-24T01:54:15.819Z,4.80
2018-05-24T01:55:18.369Z,4.63
2018-05-24T01:56:20.880Z,4.57
2018-05-24T01:57:23.362Z,4.37
2018-05-24T01:58:25.853Z,4.33
2018-05-24T01:59:28.357Z,4.30
2018-05-24T02:00:30.845Z,4.30
2018-05-24T02:01:33.373Z,3.97
2018-05-24T02:02:35.861Z,4.53
2018-05-24T02:03:38.363Z,4.10
2018-05-24T02:04:40.873Z,4.00
2018-05-24T02:05:43.393Z,4.40
2018-05-24T02:06:45.899Z,3.90
2018-05-24T02:07:48.415Z,4.23
2018-05-24T02:08:50.920Z,3.83
2018-05-24T02:09:53.441Z,3.83
2018-05-24T02:10:55.919Z,4.50
2018-05-24T02:11:58.593Z,3.87
2018-05-24T02:13:01.100Z,4.10
2018-05-24T02:14:03.596Z,4.20
2018-05-24T02:15:06.107Z,4.27
2018-05-24T02:16:08.661Z,4.20
2018-05-24T02:17:11.134Z,4.23
2018-05-24T02:18:13.639Z,3.60
2018-05-24T02:19:16.114Z,3.90
2018-05-24T02:20:18.616Z,4.40
2018-05-24T02:21:21.100Z,4.00
2018-05-24T02:22:23.714Z,4.13
2018-05-24T02:23:26.201Z,3.60
2018-05-24T02:24:28.682Z,4.03
2018-05-24T02:25:31.178Z,3.93
2018-05-24T02:26:33.699Z,4.10
2018-05-24T02:27:36.189Z,4.47
2018-05-24T02:28:38.667Z,4.10
2018-05-24T02:29:41.152Z,4.27
2018-05-24T02:30:43.665Z,4.43
2018-05-24T02:31:46.150Z,3.80
2018-05-24T02:32:48.639Z,4.30
2018-05-24T02:33:51.149Z,4.10
2018-05-24T02:34:53.631Z,4.80
2018-05-24T02:35:56.293Z,4.30
2018-05-24T02:36:58.655Z,3.90
2018-05-24T02:38:01.126Z,4.33
2018-05-24T02:39:03.618Z,4.40
2018-05-24T02:40:06.124Z,3.27
2018-05-24T02:41:08.638Z,3.90
2018-05-24T02:42:11.108Z,4.80
2018-05-24T02:43:13.604Z,4.00
2018-05-24T02:44:16.097Z,3.80
2018-05-24T02:45:18.604Z,3.87
2018-05-24T02:46:21.116Z,3.93
2018-05-24T02:47:23.607Z,3.67
2018-05-24T02:48:26.099Z,3.83
2018-05-24T02:49:28.589Z,4.13
2018-05-24T02:50:31.084Z,3.57
2018-05-24T02:51:33.605Z,3.87
2018-05-24T02:52:36.075Z,4.00
2018-05-24T02:53:38.565Z,3.90
2018-05-24T02:54:41.053Z,3.50
2018-05-24T02:55:43.556Z,4.10
2018-05-24T02:56:46.046Z,4.33
2018-05-24T02:57:48.553Z,4.30
2018-05-24T02:58:51.043Z,4.13
2018-05-24T02:59:53.547Z,3.90
2018-05-24T03:00:56.041Z,3.90
2018-05-24T03:01:58.547Z,4.43
2018-05-24T03:03:01.362Z,3.53
2018-05-24T03:04:04.515Z,4.20
2018-05-24T03:05:07.065Z,4.30
2018-05-24T03:06:09.951Z,4.00
2018-05-24T03:07:12.600Z,3.60
2018-05-24T03:08:15.103Z,3.63
2018-05-24T03:09:17.619Z,3.50
2018-05-24T03:10:20.113Z,3.90
2018-05-24T03:11:22.641Z,3.40
2018-05-24T03:12:25.168Z,3.90
2018-05-24T03:13:27.672Z,4.00
2018-05-24T03:14:30.232Z,3.73
2018-05-24T03:15:32.724Z,4.13
2018-05-24T03:16:35.229Z,4.10
2018-05-24T03:17:37.743Z,3.70
2018-05-24T03:18:40.229Z,3.97
2018-05-24T03:19:42.751Z,4.43
2018-05-24T03:20:45.261Z,3.67
2018-05-24T03:21:47.752Z,3.53
2018-05-24T03:22:50.279Z,4.17
2018-05-24T03:23:52.775Z,4.10
2018-05-24T03:24:55.262Z,4.67
2018-05-24T03:25:57.748Z,3.30
2018-05-24T03:27:00.225Z,3.50
2018-05-24T03:28:02.719Z,3.60
2018-05-24T03:29:05.205Z,3.30
2018-05-24T03:30:07.716Z,3.70
2018-05-24T03:31:10.210Z,3.43
2018-05-24T03:32:12.697Z,3.90
2018-05-24T03:33:15.212Z,3.60
2018-05-24T03:34:17.715Z,3.60
2018-05-24T03:35:20.357Z,3.73
2018-05-24T03:36:22.785Z,3.63
2018-05-24T03:37:25.274Z,3.60
2018-05-24T03:38:27.780Z,3.97
2018-05-24T03:39:30.246Z,3.20
2018-05-24T03:40:32.723Z,4.00
2018-05-24T03:41:35.223Z,3.80
2018-05-24T03:42:37.713Z,4.00
2018-05-24T03:43:40.210Z,3.20
2018-05-24T03:44:42.699Z,3.90
2018-05-24T03:45:45.247Z,3.40
2018-05-24T03:46:47.691Z,3.23
2018-05-24T03:47:50.199Z,3.80
2018-05-24T03:48:52.711Z,4.13
2018-05-24T03:49:55.212Z,3.50
2018-05-24T03:50:57.694Z,3.60
2018-05-24T03:52:00.315Z,3.50
2018-05-24T03:53:02.748Z,3.37
2018-05-24T03:54:05.253Z,3.83
2018-05-24T03:55:07.746Z,3.67
2018-05-24T03:56:10.254Z,3.40
2018-05-24T03:57:12.732Z,3.83
2018-05-24T03:58:15.221Z,3.73
2018-05-24T04:01:19.293Z,3.40
2018-05-24T04:02:33.621Z,3.83
2018-05-24T04:03:47.966Z,3.70
2018-05-24T04:04:52.419Z,3.67
2018-05-24T04:05:54.910Z,3.70
2018-05-24T04:06:57.397Z,3.20
2018-05-24T04:07:59.890Z,3.73
2018-05-24T04:09:02.378Z,4.07
2018-05-24T04:10:04.957Z,3.73
2018-05-24T04:11:07.464Z,3.37
2018-05-24T04:12:09.958Z,3.97
2018-05-24T04:13:12.438Z,3.40
2018-05-24T04:14:14.918Z,3.70
2018-05-24T04:15:17.440Z,3.90
2018-05-24T04:16:19.929Z,3.97
2018-05-24T04:17:22.443Z,3.30
2018-05-24T04:18:24.914Z,3.13
2018-05-24T04:19:27.415Z,3.23
2018-05-24T04:20:29.921Z,3.80
2018-05-24T04:21:32.414Z,3.77
2018-05-24T04:22:34.983Z,3.40
2018-05-24T04:23:37.476Z,3.37
2018-05-24T04:24:39.991Z,3.57
2018-05-24T04:25:42.519Z,2.90
2018-05-24T04:26:45.024Z,3.87
2018-05-24T04:27:47.505Z,3.40
2018-05-24T04:28:49.999Z,3.00
2018-05-24T04:29:52.488Z,3.50
2018-05-24T04:30:55.034Z,3.23
2018-05-24T04:31:57.507Z,3.40
2018-05-24T04:33:00.075Z,3.70
2018-05-24T04:34:02.525Z,3.50
2018-05-24T04:35:05.027Z,3.40
2018-05-24T04:36:07.538Z,3.40
2018-05-24T04:37:10.031Z,3.30
2018-05-24T04:38:12.528Z,3.40
2018-05-24T04:39:15.010Z,3.20
2018-05-24T04:40:17.495Z,3.50
2018-05-24T04:41:20.147Z,3.20
2018-05-24T04:42:22.648Z,3.83
2018-05-24T04:43:25.120Z,2.90
2018-05-24T04:44:27.623Z,3.30
2018-05-24T04:45:30.143Z,3.40
2018-05-24T04:46:32.667Z,3.20
2018-05-24T04:47:35.152Z,3.13
2018-05-24T04:48:37.643Z,2.97
2018-05-24T04:49:40.125Z,3.20
2018-05-24T04:50:42.621Z,3.03
2018-05-24T04:51:45.123Z,3.10
2018-05-24T04:52:47.669Z,2.90
2018-05-24T04:53:50.222Z,2.90
2018-05-24T04:54:52.738Z,3.20
2018-05-24T04:55:55.247Z,2.73
2018-05-24T04:56:57.757Z,3.40
2018-05-24T04:58:00.251Z,3.17
2018-05-24T04:59:02.845Z,3.00
2018-05-24T05:00:05.336Z,3.30
2018-05-24T05:01:07.833Z,3.30
2018-05-24T05:02:10.396Z,3.50
2018-05-24T05:03:12.907Z,3.00
2018-05-24T05:04:15.417Z,3.30
2018-05-24T05:05:17.931Z,2.90
2018-05-24T05:06:20.462Z,3.30
2018-05-24T05:07:22.969Z,2.90
2018-05-24T05:08:25.439Z,3.20
2018-05-24T05:09:27.914Z,3.17
2018-05-24T05:10:30.401Z,3.90
2018-05-24T05:11:32.896Z,3.33
2018-05-24T05:12:35.414Z,3.10
2018-05-24T05:13:37.968Z,3.20
2018-05-24T05:14:40.689Z,3.40
2018-05-24T05:15:43.149Z,2.90
2018-05-24T05:16:45.636Z,3.63
2018-05-24T05:17:48.135Z,2.90
2018-05-24T05:18:50.620Z,3.13
2018-05-24T05:19:53.120Z,3.40
2018-05-24T05:20:55.620Z,3.00
2018-05-24T05:21:58.134Z,2.83
2018-05-24T05:23:00.719Z,3.93
2018-05-24T05:24:03.217Z,3.90
2018-05-24T05:25:05.731Z,3.80
2018-05-24T05:26:08.231Z,3.90
2018-05-24T05:27:10.716Z,3.50
2018-05-24T05:28:13.226Z,3.43
2018-05-24T05:29:15.719Z,3.77
2018-05-24T05:30:18.209Z,3.83
2018-05-24T05:31:20.745Z,3.40
2018-05-24T05:32:23.286Z,3.67
2018-05-24T05:33:25.804Z,3.63
2018-05-24T05:34:28.324Z,4.33
2018-05-24T05:35:30.819Z,4.20
2018-05-24T05:36:33.306Z,3.93
2018-05-24T05:37:35.849Z,4.17
2018-05-24T05:38:38.377Z,4.00
2018-05-24T05:39:40.853Z,4.57
2018-05-24T05:40:43.433Z,4.27
2018-05-24T05:41:45.964Z,4.00
2018-05-24T05:42:48.468Z,3.93
2018-05-24T05:43:51.007Z,4.27
2018-05-24T05:44:53.616Z,4.10
2018-05-24T05:45:56.038Z,3.87
2018-05-24T05:46:58.894Z,3.80
2018-05-24T05:48:01.750Z,4.50
2018-05-24T05:49:04.730Z,3.83
2018-05-24T05:50:07.776Z,3.77
2018-05-24T05:51:10.344Z,4.00
2018-05-24T05:52:12.840Z,3.50
2018-05-24T05:53:15.420Z,3.90
2018-05-24T05:54:17.957Z,3.90
2018-05-24T05:55:20.540Z,3.70
2018-05-24T05:56:23.165Z,3.80
2018-05-24T05:57:25.678Z,3.50
2018-05-24T05:58:28.155Z,3.77
2018-05-24T05:59:30.657Z,4.00
2018-05-24T06:00:33.148Z,4.10
2018-05-24T06:01:35.752Z,3.70
2018-05-24T06:02:38.243Z,4.00
2018-05-24T06:03:40.746Z,3.70
2018-05-24T06:04:43.247Z,4.30
2018-05-24T06:05:45.733Z,3.87
2018-05-24T06:06:48.336Z,3.60
2018-05-24T06:07:50.831Z,3.70
2018-05-24T06:08:53.303Z,4.00
2018-05-24T06:09:55.827Z,4.07
2018-05-24T06:10:58.335Z,4.30
2018-05-24T06:12:00.837Z,4.00
2018-05-24T06:13:03.329Z,4.80
2018-05-24T06:14:05.798Z,3.70
2018-05-24T06:15:08.430Z,4.23
2018-05-24T06:16:10.915Z,4.57
2018-05-24T06:17:13.441Z,4.60
2018-05-24T06:18:15.952Z,4.23
2018-05-24T06:19:18.446Z,3.97
2018-05-24T06:20:20.968Z,4.67
2018-05-24T06:21:23.477Z,4.10
2018-05-24T06:22:25.952Z,4.10
2018-05-24T06:23:28.445Z,4.13
2018-05-24T06:24:31.033Z,4.10
2018-05-24T06:25:33.549Z,3.80
2018-05-24T06:26:36.055Z,4.13
2018-05-24T06:27:38.545Z,4.53
2018-05-24T06:28:41.056Z,4.30
2018-05-24T06:29:43.583Z,4.13
2018-05-24T06:30:46.097Z,3.70
2018-05-24T06:31:48.615Z,3.90
2018-05-24T06:32:51.087Z,4.00
2018-05-24T06:33:53.577Z,4.70
2018-05-24T06:34:56.046Z,4.20
2018-05-24T06:35:58.557Z,4.80
2018-05-24T06:37:01.049Z,4.43
2018-05-24T06:38:03.522Z,4.50
2018-05-24T06:39:06.009Z,4.63
2018-05-24T06:40:08.497Z,4.10
2018-05-24T06:41:11.015Z,4.27
2018-05-24T06:42:13.487Z,4.73
2018-05-24T06:43:15.954Z,4.30
2018-05-24T06:44:18.455Z,4.90
2018-05-24T06:45:20.951Z,4.13
2018-05-24T06:46:23.480Z,4.70
2018-05-24T06:47:25.975Z,4.50
2018-05-24T06:48:28.465Z,4.33
2018-05-24T06:49:30.957Z,4.30
2018-05-24T06:50:33.441Z,4.40
2018-05-24T06:51:35.958Z,4.10
2018-05-24T06:52:38.468Z,4.60
2018-05-24T06:53:41.268Z,4.13
2018-05-24T06:54:43.742Z,4.80
2018-05-24T06:55:46.249Z,4.67
2018-05-24T06:56:48.779Z,5.20
2018-05-24T06:57:51.268Z,4.93
2018-05-24T06:58:53.759Z,3.70
2018-05-24T06:59:56.270Z,4.53
2018-05-24T07:00:58.781Z,6.57
2018-05-24T07:02:01.307Z,6.43
2018-05-24T07:03:03.810Z,6.10
2018-05-24T07:04:06.290Z,5.53
2018-05-24T07:05:08.763Z,5.97
2018-05-24T07:06:11.246Z,6.20
2018-05-24T07:07:13.734Z,4.23
2018-05-24T07:08:16.243Z,5.67
2018-05-24T07:09:18.789Z,5.40
2018-05-24T07:10:21.258Z,5.00
2018-05-24T07:11:23.776Z,4.70
2018-05-24T07:12:26.275Z,5.23
2018-05-24T07:13:28.789Z,5.43
2018-05-24T07:14:31.283Z,4.67
2018-05-24T07:15:33.777Z,5.57
2018-05-24T07:16:36.273Z,5.17
2018-05-24T07:17:38.785Z,4.63
2018-05-24T07:18:41.276Z,5.17
2018-05-24T07:19:43.896Z,4.20
2018-05-24T07:20:46.385Z,4.90
2018-05-24T07:21:48.897Z,4.73
2018-05-24T07:22:51.416Z,4.70
2018-05-24T07:23:53.883Z,5.03
2018-05-24T07:24:56.369Z,4.30
2018-05-24T07:25:58.861Z,5.60
2018-05-24T07:27:01.367Z,5.13
2018-05-24T07:28:03.876Z,4.87
2018-05-24T07:29:06.373Z,5.33
2018-05-24T07:30:08.930Z,4.40
2018-05-24T07:31:11.413Z,5.20
2018-05-24T07:32:13.951Z,4.93
2018-05-24T07:33:16.511Z,4.40
2018-05-24T07:34:19.066Z,4.20
2018-05-24T07:35:21.854Z,4.83
2018-05-24T07:36:24.539Z,4.03
2018-05-24T07:37:27.088Z,4.60
2018-05-24T07:38:29.599Z,4.53
2018-05-24T07:39:33.042Z,4.40
2018-05-24T07:40:35.557Z,5.33
2018-05-24T07:41:38.053Z,4.67
2018-05-24T07:42:40.574Z,4.60
2018-05-24T07:43:43.249Z,4.97
2018-05-24T07:44:45.772Z,4.17
2018-05-24T07:45:48.368Z,4.20
2018-05-24T07:46:51.007Z,4.67
2018-05-24T07:47:53.500Z,4.17
2018-05-24T07:48:56.001Z,4.30
2018-05-24T07:49:58.470Z,4.50
2018-05-24T07:51:00.961Z,4.70
2018-05-24T07:52:03.480Z,4.23
2018-05-24T07:53:05.971Z,4.37
2018-05-24T07:54:08.489Z,5.90
2018-05-24T07:55:10.984Z,4.90
2018-05-24T07:56:13.488Z,4.60
2018-05-24T07:57:15.983Z,4.13
2018-05-24T07:58:18.458Z,4.33
2018-05-24T07:59:20.963Z,4.53
2018-05-24T08:00:23.451Z,4.40
2018-05-24T08:01:25.971Z,4.50
2018-05-24T08:02:28.484Z,4.70
2018-05-24T08:03:31.618Z,4.27
2018-05-24T08:04:34.115Z,4.20
2018-05-24T08:05:36.604Z,4.47
2018-05-24T08:06:40.821Z,4.20
2018-05-24T08:07:43.408Z,4.80
2018-05-24T08:08:46.020Z,4.50
2018-05-24T08:09:48.571Z,4.33
2018-05-24T08:10:52.259Z,4.53
2018-05-24T08:11:57.905Z,4.27
2018-05-24T08:13:01.072Z,4.43
2018-05-24T08:14:04.964Z,4.13
2018-05-24T08:15:07.491Z,4.13
2018-05-24T08:16:09.983Z,4.40
2018-05-24T08:17:12.463Z,4.20
2018-05-24T08:18:14.938Z,4.93
2018-05-24T08:19:17.441Z,4.80
2018-05-24T08:20:19.964Z,4.30
2018-05-24T08:21:22.461Z,4.47
2018-05-24T08:22:24.984Z,4.90
2018-05-24T08:23:27.496Z,4.33
2018-05-24T08:24:30.005Z,4.57
2018-05-24T08:25:32.515Z,3.80
2018-05-24T08:26:35.005Z,4.20
2018-05-24T08:27:37.534Z,3.67
2018-05-24T08:28:40.025Z,4.87
2018-05-24T08:29:42.529Z,4.20
2018-05-24T08:30:45.022Z,4.17
2018-05-24T08:31:47.509Z,4.40
2018-05-24T08:32:49.982Z,4.57
2018-05-24T08:33:52.479Z,4.10
2018-05-24T08:34:54.961Z,4.33
2018-05-24T08:35:57.470Z,4.23
2018-05-24T08:36:59.942Z,4.60
2018-05-24T08:38:02.433Z,4.97
2018-05-24T08:39:05.715Z,4.30
2018-05-24T08:40:08.191Z,4.63
2018-05-24T08:41:10.700Z,4.47
2018-05-24T08:42:13.205Z,4.67
2018-05-24T08:43:15.719Z,4.60
2018-05-24T08:44:18.224Z,4.70
2018-05-24T08:45:20.737Z,4.97
2018-05-24T08:46:23.252Z,4.70
2018-05-24T08:47:25.777Z,4.50
2018-05-24T08:48:28.215Z,4.70
2018-05-24T08:49:30.701Z,4.50
2018-05-24T08:50:33.202Z,4.23
2018-05-24T08:51:35.727Z,4.60
2018-05-24T08:52:38.225Z,4.87
2018-05-24T08:53:40.871Z,5.00
2018-05-24T08:54:43.357Z,4.50
2018-05-24T08:55:45.867Z,5.00
2018-05-24T08:56:48.354Z,5.27
2018-05-24T08:57:50.834Z,6.03
2018-05-24T08:58:53.336Z,4.97
2018-05-24T08:59:55.863Z,4.67
2018-05-24T09:00:58.371Z,5.23
2018-05-24T09:02:00.880Z,6.00
2018-05-24T09:03:03.395Z,5.43
2018-05-24T09:04:05.907Z,5.80
2018-05-24T09:05:08.386Z,5.60
2018-05-24T09:06:10.951Z,5.10
2018-05-24T09:07:14.516Z,5.80
2018-05-24T09:08:17.208Z,5.37
2018-05-24T09:09:19.805Z,5.57
2018-05-24T09:10:22.307Z,5.30
2018-05-24T09:11:24.828Z,5.60
2018-05-24T09:12:27.365Z,6.00
2018-05-24T09:13:29.886Z,5.43
2018-05-24T09:14:32.399Z,5.23
2018-05-24T09:15:34.923Z,5.57
2018-05-24T09:16:38.753Z,5.73
2018-05-24T09:17:42.545Z,5.87
2018-05-24T09:18:45.041Z,6.50
2018-05-24T09:19:47.535Z,5.67
2018-05-24T09:20:50.006Z,5.90
2018-05-24T09:21:52.513Z,6.17
2018-05-24T09:22:55.058Z,5.97
2018-05-24T09:23:57.530Z,5.90
2018-05-24T09:25:00.016Z,5.60
2018-05-24T09:26:02.591Z,5.43
2018-05-24T09:27:05.090Z,5.80
2018-05-24T09:28:07.601Z,5.37
2018-05-24T09:29:10.097Z,5.80
2018-05-24T09:30:12.589Z,5.93
2018-05-24T09:31:15.095Z,5.67
2018-05-24T09:32:17.589Z,5.70
2018-05-24T09:33:20.081Z,5.43
2018-05-24T09:34:22.587Z,6.50
2018-05-24T09:35:25.095Z,5.60
2018-05-24T09:36:27.599Z,5.97
2018-05-24T09:37:30.126Z,5.80
2018-05-24T09:38:32.633Z,5.90
2018-05-24T09:39:35.156Z,6.10
2018-05-24T09:40:37.655Z,5.27
2018-05-24T09:41:40.139Z,4.97
2018-05-24T09:42:42.657Z,5.63
2018-05-24T09:43:45.191Z,5.83
2018-05-24T09:44:47.845Z,5.10
2018-05-24T09:45:50.344Z,4.77
2018-05-24T09:46:52.838Z,5.63
2018-05-24T09:47:55.339Z,6.10
2018-05-24T09:48:57.865Z,5.40
2018-05-24T09:50:00.365Z,5.80
2018-05-24T09:51:02.861Z,5.13
2018-05-24T09:52:05.384Z,5.20
2018-05-24T09:53:07.882Z,4.80
2018-05-24T09:54:10.390Z,5.67
2018-05-24T09:55:12.932Z,6.13
2018-05-24T09:56:15.382Z,5.33
2018-05-24T09:57:17.984Z,5.57
2018-05-24T09:58:20.487Z,5.23
2018-05-24T09:59:23.028Z,5.40
2018-05-24T10:00:25.521Z,5.70
2018-05-24T10:01:28.161Z,5.87
2018-05-24T10:02:30.646Z,6.37
2018-05-24T10:03:33.152Z,5.90
2018-05-24T10:04:35.727Z,5.93
2018-05-24T10:05:38.181Z,5.90
2018-05-24T10:06:40.665Z,5.70
2018-05-24T10:07:43.176Z,5.90
2018-05-24T10:08:45.683Z,5.93
2018-05-24T10:09:48.195Z,5.83
2018-05-24T10:10:50.709Z,5.97
2018-05-24T10:11:53.181Z,6.20
2018-05-24T10:12:55.697Z,6.10
2018-05-24T10:13:58.188Z,6.03
2018-05-24T10:15:00.694Z,6.80
2018-05-24T10:16:03.241Z,6.07
2018-05-24T10:17:05.704Z,5.67
2018-05-24T10:18:08.230Z,6.07
2018-05-24T10:19:10.701Z,6.00
2018-05-24T10:20:13.202Z,5.90
2018-05-24T10:21:15.721Z,5.50
2018-05-24T10:22:18.193Z,5.17
2018-05-24T10:23:20.677Z,5.90
2018-05-24T10:24:23.182Z,5.83
2018-05-24T10:25:25.679Z,5.10
2018-05-24T10:26:28.181Z,5.60
2018-05-24T10:27:30.665Z,5.53
2018-05-24T10:28:33.175Z,6.00
2018-05-24T10:29:35.663Z,5.27
2018-05-24T10:30:38.150Z,5.60
2018-05-24T10:31:40.631Z,5.10
2018-05-24T10:32:43.119Z,5.33
2018-05-24T10:33:45.632Z,5.80
2018-05-24T10:34:48.125Z,5.70
2018-05-24T10:35:50.618Z,5.20
2018-05-24T10:36:53.115Z,5.87
2018-05-24T10:37:55.645Z,6.20
2018-05-24T10:38:58.114Z,5.90
2018-05-24T10:40:00.582Z,6.43
2018-05-24T10:41:03.108Z,5.83
2018-05-24T10:42:05.633Z,4.87
2018-05-24T10:43:08.124Z,5.70
2018-05-24T10:44:10.638Z,5.80
2018-05-24T10:45:13.153Z,6.40
2018-05-24T10:46:15.675Z,5.97
2018-05-24T10:47:18.210Z,6.13
2018-05-24T10:48:20.720Z,6.07
2018-05-24T10:49:23.232Z,6.23
2018-05-24T10:50:25.729Z,6.37
2018-05-24T10:51:28.239Z,5.80
2018-05-24T10:52:30.747Z,6.50
2018-05-24T10:53:33.248Z,5.33
2018-05-24T10:54:35.718Z,5.60
2018-05-24T10:55:38.218Z,5.80
2018-05-24T10:56:40.710Z,6.20
2018-05-24T10:57:43.212Z,5.70
2018-05-24T10:58:45.720Z,6.10
2018-05-24T10:59:48.213Z,5.77
2018-05-24T11:00:50.787Z,6.57
2018-05-24T11:01:53.301Z,6.00
2018-05-24T11:02:55.860Z,6.00
2018-05-24T11:03:58.363Z,6.20
2018-05-24T11:05:00.836Z,6.20
2018-05-24T11:06:03.329Z,6.53
2018-05-24T11:07:05.844Z,6.47
2018-05-24T11:08:08.332Z,6.10
2018-05-24T11:09:10.865Z,5.53
2018-05-24T11:10:13.357Z,6.10
2018-05-24T11:11:15.858Z,6.57
2018-05-24T11:12:18.351Z,6.40
2018-05-24T11:13:20.857Z,5.80
2018-05-24T11:14:23.358Z,5.70
2018-05-24T11:15:25.872Z,5.77
2018-05-24T11:16:28.358Z,6.27
2018-05-24T11:17:30.879Z,6.00
2018-05-24T11:18:33.391Z,5.90
2018-05-24T11:19:35.907Z,5.87
2018-05-24T11:20:38.462Z,6.30
2018-05-24T11:21:40.990Z,5.93
2018-05-24T11:22:43.496Z,6.40
2018-05-24T11:23:46.099Z,5.40
2018-05-24T11:24:48.605Z,6.43
2018-05-24T11:25:51.254Z,6.33
2018-05-24T11:26:53.734Z,6.97
2018-05-24T11:27:56.253Z,6.47
2018-05-24T11:28:58.783Z,6.70
2018-05-24T11:30:01.295Z,7.00
2018-05-24T11:31:03.811Z,7.03
2018-05-24T11:32:06.381Z,6.80
2018-05-24T11:33:08.881Z,6.57
2018-05-24T11:34:11.486Z,6.50
2018-05-24T11:35:13.966Z,6.20
2018-05-24T11:36:16.537Z,6.60
2018-05-24T11:37:19.003Z,6.73
2018-05-24T11:38:21.508Z,6.27
2018-05-24T11:39:24.035Z,6.90
2018-05-24T11:40:26.541Z,7.33
2018-05-24T11:41:29.059Z,6.47
2018-05-24T11:42:31.561Z,6.70
2018-05-24T11:43:34.095Z,6.50
2018-05-24T11:44:36.625Z,7.67
2018-05-24T11:45:39.483Z,6.57
2018-05-24T11:46:41.993Z,7.20
2018-05-24T11:47:44.483Z,6.87
2018-05-24T11:48:47.088Z,6.67
2018-05-24T11:49:49.591Z,7.13
2018-05-24T11:50:52.063Z,7.07
2018-05-24T11:51:54.663Z,7.20
2018-05-24T11:52:57.110Z,7.20
2018-05-24T11:53:59.621Z,6.90
2018-05-24T11:55:02.180Z,7.77
2018-05-24T11:56:04.655Z,6.90
2018-05-24T11:57:07.141Z,6.67
2018-05-24T11:58:09.651Z,7.17
2018-05-24T11:59:12.146Z,7.57
2018-05-24T12:00:14.662Z,7.17
2018-05-24T12:01:17.179Z,6.87
2018-05-24T12:02:19.681Z,7.80
2018-05-24T12:03:22.194Z,6.70
2018-05-24T12:04:24.702Z,7.70
2018-05-24T12:05:27.202Z,8.37
2018-05-24T12:06:29.692Z,7.50
2018-05-24T12:07:32.190Z,6.80
2018-05-24T12:08:34.689Z,7.00
2018-05-24T12:09:37.212Z,7.00
2018-05-24T12:10:39.727Z,6.87
2018-05-24T12:11:42.232Z,7.03
2018-05-24T12:12:44.767Z,7.40
2018-05-24T12:13:47.246Z,7.50
2018-05-24T12:14:49.752Z,7.77
2018-05-24T12:15:52.259Z,7.30
2018-05-24T12:16:54.764Z,7.53
2018-05-24T12:17:57.266Z,7.80
2018-05-24T12:18:59.765Z,7.30
2018-05-24T12:20:02.267Z,7.23
2018-05-24T12:21:04.767Z,7.90
2018-05-24T12:22:08.461Z,7.63
2018-05-24T12:23:11.402Z,7.10
2018-05-24T12:24:14.714Z,7.40
2018-05-24T12:25:18.574Z,7.80
2018-05-24T12:26:21.092Z,7.60
2018-05-24T12:27:23.598Z,7.83
2018-05-24T12:28:26.092Z,6.83
2018-05-24T12:29:28.567Z,7.40
2018-05-24T12:30:31.336Z,7.80
2018-05-24T12:31:33.976Z,7.33
2018-05-24T12:32:36.485Z,7.67
2018-05-24T12:33:39.005Z,7.43
2018-05-24T12:34:41.511Z,8.17
2018-05-24T12:35:44.019Z,6.83
2018-05-24T12:36:46.513Z,7.37
2018-05-24T12:37:49.009Z,7.27
2018-05-24T12:38:51.784Z,7.90
2018-05-24T12:39:54.254Z,6.40
2018-05-24T12:40:57.195Z,7.30
2018-05-24T12:42:00.191Z,7.73
2018-05-24T12:43:02.834Z,7.43
2018-05-24T12:44:07.339Z,7.23
2018-05-24T12:45:11.010Z,7.30
2018-05-24T12:46:13.584Z,8.03
2018-05-24T12:47:16.087Z,8.13
2018-05-24T12:48:18.592Z,7.10
2018-05-24T12:49:21.109Z,7.43
2018-05-24T12:50:23.601Z,8.10
2018-05-24T12:51:26.105Z,8.10
2018-05-24T12:52:28.579Z,6.67
2018-05-24T12:53:31.462Z,7.90
2018-05-24T12:54:34.556Z,8.17
2018-05-24T12:55:37.832Z,7.30
2018-05-24T12:56:40.986Z,7.20
2018-05-24T12:57:43.672Z,7.20
2018-05-24T12:58:46.141Z,7.90
2018-05-24T12:59:48.629Z,7.00
2018-05-24T13:00:51.324Z,8.07
2018-05-24T13:01:55.136Z,7.33
2018-05-24T13:02:58.519Z,7.80
2018-05-24T13:04:01.783Z,7.67
2018-05-24T13:05:04.872Z,8.00
2018-05-24T13:06:07.857Z,7.60
2018-05-24T13:07:10.520Z,8.10
2018-05-24T13:08:12.996Z,8.13
2018-05-24T13:09:15.482Z,7.53
2018-05-24T13:10:17.963Z,7.43
2018-05-24T13:11:20.593Z,7.50
2018-05-24T13:12:23.061Z,7.70
2018-05-24T13:13:25.561Z,8.10
2018-05-24T13:14:28.063Z,7.53
2018-05-24T13:15:30.567Z,8.00
2018-05-24T13:16:33.088Z,8.93
2018-05-24T13:17:35.601Z,7.90
2018-05-24T13:18:38.121Z,7.27
2018-05-24T13:19:40.759Z,7.40
2018-05-24T13:20:43.266Z,8.07
2018-05-24T13:21:45.766Z,7.83
2018-05-24T13:22:48.262Z,8.20
2018-05-24T13:23:50.757Z,9.83
2018-05-24T13:24:53.338Z,10.07
2018-05-24T13:25:55.827Z,11.07
2018-05-24T13:26:58.426Z,8.63
2018-05-24T13:28:00.941Z,9.60
2018-05-24T13:29:03.440Z,9.87
2018-05-24T13:30:05.958Z,9.40
2018-05-24T13:31:08.433Z,8.77
2018-05-24T13:32:10.944Z,9.30
2018-05-24T13:33:13.457Z,9.60
2018-05-24T13:34:15.979Z,10.67
2018-05-24T13:35:18.484Z,10.80
2018-05-24T13:36:20.981Z,10.47
2018-05-24T13:37:23.481Z,10.03
2018-05-24T13:38:26.012Z,10.00
2018-05-24T13:39:28.523Z,9.83
2018-05-24T13:40:31.060Z,9.47
2018-05-24T13:41:33.553Z,10.30
2018-05-24T13:42:36.039Z,10.47
2018-05-24T13:43:38.538Z,9.53
2018-05-24T13:44:41.062Z,10.90
2018-05-24T13:45:43.542Z,10.00
2018-05-24T13:46:46.037Z,10.90
2018-05-24T13:47:48.694Z,11.37
2018-05-24T13:48:51.198Z,10.47
2018-05-24T13:49:53.689Z,11.30
2018-05-24T13:50:56.178Z,10.50
2018-05-24T13:51:58.689Z,9.20
2018-05-24T13:53:01.241Z,9.33
2018-05-24T13:54:03.757Z,9.50